Latest Weather Observations for ACT PCS2

IDN60901

Issued at 8:22 am EST Sunday 19 May 2024 (issued every 10 minutes, with the page automatically refreshed every 10 minutes)

About weather observations | Map of Canberra area stations | Latest observations for Canberra area | Other Formats
Station Details ID: 250105 Name: ACT PCS2 Lat: -35.41 Lon: 149.01 Height: 820.0 m

Portable automatic weather stations (PAWS) are operated by other organisations, such as Fire and Emergency Services, and are included here by agreement. Portable stations may be deployed to a location for a short period and their location may be subject to change without notice. Wind observations from these stations are provided from heights of either three (3) or ten (10) metres above ground level (AGL).

Data from the previous 72 hours. | See also: Recent months for locations in Aust Capital Territory
Date/Time
EST
Temp
°C
App
Temp
°C
Dew
Point
°C
Rel
Hum
%
Delta-T
°C
Wind Press
QNH
hPa
Press
MSL
hPa
Rain since
9am
mm
Dir  Spd
km/h
Gust
km/h
Spd
kts
Gust
kts
19/08:10am 3.6 1.2 -0.4 75 1.6 NNW 2 4 1 2 - - 0.0
19/08:00am 3.4 1.0 -0.2 77 1.4 NNW 2 4 1 2 - - 0.0
19/07:50am 4.1 1.7 0.0 74 1.6 N 2 4 1 2 - - 0.0
19/07:40am 3.5 1.1 -0.6 74 1.6 S 2 2 1 1 - - 0.0
19/07:30am 2.6 0.5 -0.6 79 1.2 CALM 0 0 0 0 - - 0.0
19/07:20am 2.3 0.2 -0.6 81 1.1 CALM 0 2 0 1 - - 0.0
19/07:10am 2.2 -0.7 -0.8 80 1.1 S 4 6 2 3 - - 0.0
19/07:00am 1.6 -0.5 -0.8 84 0.9 CALM 0 2 0 1 - - 0.0
19/06:50am 1.6 -0.5 -0.8 84 0.9 CALM 0 4 0 2 - - 0.0
19/06:40am 1.6 -0.5 -0.8 84 0.9 CALM 0 0 0 0 - - 0.0
19/06:30am 1.8 -0.3 -0.7 83 1.0 CALM 0 0 0 0 - - 0.0
19/06:20am 2.2 0.1 -0.7 81 1.1 CALM 0 2 0 1 - - 0.0
19/06:10am 2.5 -0.3 -0.7 79 1.2 SSE 4 6 2 3 - - 0.0
19/06:00am 2.3 -0.6 -1.0 79 1.3 SSE 4 6 2 3 - - 0.0
19/05:50am 2.1 -0.4 -0.8 81 1.1 SSE 2 2 1 1 - - 0.0
19/05:40am 2.5 -0.4 -0.9 78 1.3 SSE 4 4 2 2 - - 0.0
19/05:30am 2.6 -0.3 -0.8 78 1.3 S 4 6 2 3 - - 0.0
19/05:20am 2.7 -0.5 -0.7 78 1.3 SSE 6 7 3 4 - - 0.0
19/05:10am 2.8 -0.6 -0.7 78 1.3 SSE 7 9 4 5 - - 0.0
19/05:00am 2.7 -0.6 -0.9 77 1.4 SSE 6 7 3 4 - - 0.0
19/04:50am 2.7 -0.1 -0.7 78 1.3 SSE 4 4 2 2 - - 0.0
19/04:40am 2.9 -0.3 -0.8 76 1.4 SSE 6 6 3 3 - - 0.0
19/04:30am 2.9 -0.3 -0.8 76 1.4 SSE 6 7 3 4 - - 0.0
19/04:20am 2.9 -0.3 -0.7 77 1.4 SSE 6 6 3 3 - - 0.0
19/04:10am 3.0 -0.2 -0.8 76 1.5 SSE 6 9 3 5 - - 0.0
19/04:00am 3.0 -0.2 -0.8 76 1.5 SSE 6 7 3 4 - - 0.0
19/03:50am 2.9 -0.3 -0.7 77 1.4 SSE 6 6 3 3 - - 0.0
19/03:40am 2.9 0.1 -0.7 77 1.4 SSE 4 6 2 3 - - 0.0
19/03:30am 3.2 0.4 -0.6 76 1.5 SSE 4 4 2 2 - - 0.0
19/03:20am 3.4 0.2 -0.7 74 1.6 SSE 6 7 3 4 - - 0.0
19/03:10am 3.4 0.2 -0.7 74 1.6 SSE 6 7 3 4 - - 0.0
19/03:00am 3.5 0.3 -0.7 74 1.6 SSE 6 7 3 4 - - 0.0
19/02:50am 3.7 0.3 -0.6 73 1.7 SSE 7 9 4 5 - - 0.0
19/02:40am 3.8 0.0 -0.6 73 1.7 SSE 9 11 5 6 - - 0.0
19/02:30am 3.8 0.4 -0.7 72 1.8 SSE 7 7 4 4 - - 0.0
19/02:20am 3.9 0.7 -0.5 73 1.7 SSE 6 6 3 3 - - 0.0
19/02:10am 3.9 0.7 -0.5 73 1.7 SSE 6 7 3 4 - - 0.0
19/02:00am 3.6 0.4 -0.5 74 1.6 SSE 6 6 3 3 - - 0.0
19/01:50am 3.6 0.8 -0.5 74 1.6 S 4 4 2 2 - - 0.0
19/01:40am 3.6 0.8 -0.4 75 1.6 S 4 6 2 3 - - 0.0
19/01:30am 3.7 0.5 -0.4 74 1.6 SSE 6 7 3 4 - - 0.0
19/01:20am 3.5 0.3 -0.4 75 1.5 SSE 6 6 3 3 - - 0.0
19/01:10am 3.6 0.4 -0.4 75 1.6 SSE 6 7 3 4 - - 0.0
19/01:00am 3.6 0.4 -0.4 75 1.6 SSE 6 7 3 4 - - 0.0
19/12:50am 3.6 0.8 -0.4 75 1.6 SSE 4 6 2 3 - - 0.0
19/12:40am 3.7 0.9 -0.2 76 1.5 SSE 4 4 2 2 - - 0.0
19/12:30am 3.9 0.7 -0.4 73 1.7 SSE 6 6 3 3 - - 0.0
19/12:20am 3.9 1.1 -0.4 73 1.7 S 4 6 2 3 - - 0.0
19/12:10am 4.0 0.8 -0.4 73 1.7 SSE 6 6 3 3 - - 0.0
19/12:00am 4.0 0.8 -0.4 73 1.7 SSE 6 7 3 4 - - 0.0
 
Date/Time
EST
Temp
°C
App
Temp
°C
Dew
Point
°C
Rel
Hum
%
Delta-T
°C
Wind Press
QNH
hPa
Press
MSL
hPa
Rain since
9am
mm
Dir  Spd
km/h
Gust
km/h
Spd
kts
Gust
kts
18/11:50pm 4.2 0.8 -0.5 71 1.8 SSE 7 9 4 5 - - 0.0
18/11:40pm 4.2 0.8 -0.5 71 1.8 SSE 7 9 4 5 - - 0.0
18/11:30pm 4.1 0.9 -0.6 71 1.8 SSE 6 6 3 3 - - 0.0
18/11:20pm 4.2 1.4 -0.6 71 1.9 SSE 4 6 2 3 - - 0.0
18/11:10pm 4.4 1.2 -0.7 69 2.0 SSE 6 7 3 4 - - 0.0
18/11:00pm 4.4 1.0 -0.7 69 2.0 SSE 7 7 4 4 - - 0.0
18/10:50pm 4.4 1.0 -0.7 69 2.0 SSE 7 9 4 5 - - 0.0
18/10:40pm 4.1 0.7 -0.6 71 1.8 SSE 7 7 4 4 - - 0.0
18/10:30pm 4.0 1.6 -0.6 72 1.8 S 2 6 1 3 - - 0.0
18/10:20pm 4.2 1.8 -0.5 71 1.8 SSE 2 4 1 2 - - 0.0
18/10:10pm 4.2 1.4 -0.5 71 1.8 S 4 6 2 3 - - 0.0
18/10:00pm 4.3 1.1 -0.6 70 1.9 SSE 6 7 3 4 - - 0.0
18/09:50pm 4.2 1.0 -0.5 71 1.8 SSE 6 7 3 4 - - 0.0
18/09:40pm 4.2 1.0 -0.8 70 2.0 SSE 6 7 3 4 - - 0.0
18/09:30pm 4.4 1.6 -0.4 71 1.9 SE 4 6 2 3 - - 0.0
18/09:20pm 4.8 1.6 -0.8 67 2.2 SSE 6 11 3 6 - - 0.0
18/09:10pm 4.9 1.4 -1.1 65 2.3 SSE 7 11 4 6 - - 0.0
18/09:00pm 4.7 1.4 -1.0 66 2.2 SSE 6 9 3 5 - - 0.0
18/08:50pm 4.6 2.1 -0.7 68 2.1 SSE 2 6 1 3 - - 0.0
18/08:40pm 4.4 1.9 -0.7 69 2.0 SSE 2 4 1 2 - - 0.0
18/08:30pm 4.7 2.6 -0.5 69 2.1 CALM 0 0 0 0 - - 0.0
18/08:20pm 5.0 2.6 -0.6 67 2.2 SE 2 4 1 2 - - 0.0
18/08:10pm 5.2 1.9 -0.9 65 2.4 S 6 9 3 5 - - 0.0
18/08:00pm 5.1 1.9 -0.8 65 2.3 SSE 6 9 3 5 - - 0.0
18/07:50pm 5.3 1.5 -0.8 65 2.4 SSE 9 11 5 6 - - 0.0
18/07:40pm 5.4 2.0 -0.8 64 2.5 SSE 7 9 4 5 - - 0.0
18/07:30pm 5.6 2.2 -0.9 63 2.6 SSE 7 11 4 6 - - 0.0
18/07:20pm 5.8 1.9 -1.2 61 2.8 SSE 9 11 5 6 - - 0.0
18/07:10pm 5.9 2.4 -1.4 59 2.9 S 7 11 4 6 - - 0.0
18/07:00pm 6.1 2.6 -1.2 59 2.9 SSE 7 11 4 6 - - 0.0
18/06:50pm 6.1 2.2 -1.3 59 2.9 SSE 9 11 5 6 - - 0.0
18/06:40pm 6.2 2.0 -1.2 59 2.9 SSE 11 13 6 7 - - 0.0
18/06:30pm 6.1 2.3 -1.1 60 2.9 SSE 9 11 5 6 - - 0.0
18/06:20pm 6.0 2.6 -0.9 61 2.7 SSE 7 9 4 5 - - 0.0
18/06:10pm 6.1 2.7 -0.7 62 2.7 SSE 7 9 4 5 - - 0.0
18/06:00pm 6.3 2.5 -0.8 60 2.8 SSE 9 15 5 8 - - 0.0
18/05:50pm 6.3 2.9 -0.7 61 2.8 SSE 7 11 4 6 - - 0.0
18/05:40pm 6.5 3.1 -0.4 61 2.8 S 7 11 4 6 - - 0.0
18/05:30pm 6.7 3.4 -0.2 61 2.8 S 7 9 4 5 - - 0.0
18/05:20pm 6.8 3.7 0.0 62 2.8 SSE 6 13 3 7 - - 0.0
18/05:10pm 6.9 3.5 -0.4 59 3.0 SSE 7 13 4 7 - - 0.0
18/05:00pm 7.0 3.8 -0.2 60 2.9 S 6 7 3 4 - - 0.0
18/04:50pm 7.2 3.5 -0.1 60 3.0 SSE 9 13 5 7 - - 0.0
18/04:40pm 7.4 3.8 0.3 60 2.9 SSE 9 13 5 7 - - 0.0
18/04:30pm 7.5 3.8 0.0 59 3.1 SSE 9 11 5 6 - - 0.0
18/04:20pm 7.7 4.4 0.2 59 3.1 SSE 7 9 4 5 - - 0.0
18/04:10pm 7.9 3.8 -0.2 56 3.3 SSE 11 13 6 7 - - 0.0
18/04:00pm 8.1 4.4 -0.3 55 3.5 SSE 9 13 5 7 - - 0.0
18/03:50pm 8.1 4.7 -0.3 55 3.5 SSE 7 11 4 6 - - 0.0
18/03:40pm 8.3 5.1 -0.2 55 3.5 SE 6 9 3 5 - - 0.0
18/03:30pm 8.4 5.0 -0.4 54 3.6 SSE 7 13 4 7 - - 0.0
18/03:20pm 8.5 4.7 -0.4 53 3.7 SSE 9 13 5 7 - - 0.0
18/03:10pm 8.5 4.8 -0.2 54 3.6 SSE 9 15 5 8 - - 0.0
18/03:00pm 8.8 5.5 0.0 54 3.7 SE 7 11 4 6 - - 0.0
18/02:50pm 8.9 5.5 -0.4 52 3.9 SSE 7 9 4 5 - - 0.0
18/02:40pm 8.5 4.8 0.0 55 3.5 SSE 9 15 5 8 - - 0.0
18/02:30pm 8.8 5.1 -0.2 53 3.7 SSE 9 15 5 8 - - 0.0
18/02:20pm 8.9 5.6 0.1 54 3.7 SSE 7 11 4 6 - - 0.0
18/02:10pm 8.7 5.4 0.0 54 3.6 SSE 7 13 4 7 - - 0.0
18/02:00pm 8.4 4.3 -0.3 54 3.6 SSE 11 15 6 8 - - 0.0
18/01:50pm 9.1 5.9 -0.2 52 3.9 SE 6 11 3 6 - - 0.0
18/01:40pm 9.0 5.6 -0.6 51 4.0 SE 7 13 4 7 - - 0.0
18/01:30pm 9.3 5.9 -0.5 50 4.1 SSE 7 15 4 8 - - 0.0
18/01:20pm 9.8 6.4 -0.5 48 4.3 SSE 7 13 4 7 - - 0.0
18/01:10pm 9.3 5.1 -0.6 50 4.1 SSE 11 19 6 10 - - 0.0
18/01:00pm 9.4 5.2 -0.7 49 4.2 SSE 11 19 6 10 - - 0.0
18/12:50pm 8.9 3.6 -0.6 51 3.9 SSE 17 26 9 14 - - 0.0
18/12:40pm 8.9 4.0 -0.8 50 4.0 SSE 15 19 8 10 - - 0.0
18/12:30pm 8.9 4.4 -0.5 51 3.9 SE 13 15 7 8 - - 0.0
18/12:20pm 8.9 4.8 -0.5 51 3.9 SE 11 22 6 12 - - 0.0
18/12:10pm 8.7 4.5 -0.8 51 3.9 SSE 11 17 6 9 - - 0.0
18/12:00pm 8.8 5.0 -0.9 50 4.0 SE 9 13 5 7 - - 0.0
18/11:50am 9.3 5.8 -1.0 48 4.2 SE 7 13 4 7 - - 0.0
18/11:40am 8.9 5.1 -0.9 50 4.0 SSE 9 13 5 7 - - 0.0
18/11:30am 8.6 4.7 -1.5 49 4.1 SSE 9 15 5 8 - - 0.0
18/11:20am 8.5 4.6 -1.3 50 4.0 SSE 9 17 5 9 - - 0.0
18/11:10am 8.3 4.8 -1.5 50 3.9 SSE 7 13 4 7 - - 0.0
18/11:00am 8.3 4.7 -1.8 49 4.0 SE 7 9 4 5 - - 0.0
18/10:50am 7.9 3.9 -1.9 50 3.9 SSE 9 11 5 6 - - 0.0
18/10:40am 7.8 3.4 -2.3 49 4.0 SE 11 13 6 7 - - 0.0
18/10:30am 8.0 4.4 -1.9 49 3.9 SE 7 15 4 8 - - 0.0
18/10:20am 7.6 4.0 -2.1 50 3.8 SSE 7 11 4 6 - - 0.0
18/10:10am 7.5 3.9 -1.8 51 3.7 SSE 7 13 4 7 - - 0.0
18/10:00am 7.1 3.5 -2.1 52 3.6 ESE 7 11 4 6 - - 0.0
18/09:50am 6.9 2.5 -2.4 51 3.6 SE 11 13 6 7 - - 0.0
18/09:40am 6.7 2.4 -1.7 55 3.3 SE 11 19 6 10 - - 0.0
18/09:30am 6.6 2.3 -1.6 56 3.2 SE 11 20 6 11 - - 0.0
18/09:20am 6.5 1.9 -1.3 57 3.1 SSE 13 19 7 10 - - 0.0
18/09:10am 6.5 1.9 -1.1 58 3.0 SSE 13 17 7 9 - - 0.0
18/09:00am 6.5 2.3 -0.9 59 3.0 SSE 11 15 6 8 - - 0.0
18/08:50am 6.4 3.0 -0.7 60 2.8 SSE 7 11 4 6 - - 0.0
18/08:40am 6.0 1.9 -0.4 63 2.6 SSE 11 13 6 7 - - 0.0
18/08:30am 6.0 1.9 -0.4 63 2.6 SSE 11 17 6 9 - - 0.0
18/08:20am 6.1 1.9 -0.8 61 2.8 SSE 11 19 6 10 - - 0.0
18/08:10am 5.9 1.7 -0.8 62 2.7 SSE 11 19 6 10 - - 0.0
18/08:00am 5.8 1.2 -0.8 62 2.6 SSE 13 17 7 9 - - 0.0
18/07:50am 5.7 1.5 -0.8 63 2.6 SSE 11 17 6 9 - - 0.0
18/07:40am 5.5 1.3 -0.8 64 2.5 SSE 11 17 6 9 - - 0.0
18/07:30am 5.2 -0.2 -1.0 64 2.4 SSE 17 20 9 11 - - 0.0
18/07:20am 4.9 -0.8 -1.1 65 2.3 SSE 19 24 10 13 - - 0.0
18/07:10am 4.3 -0.7 -1.2 67 2.1 SSE 15 19 8 10 - - 0.0
18/07:00am 4.0 0.2 -1.1 69 2.0 SSE 9 13 5 7 - - 0.0
18/06:50am 3.9 0.1 -1.1 70 1.9 SSE 9 13 5 7 - - 0.0
18/06:40am 4.5 0.6 -1.5 65 2.3 SSE 9 11 5 6 - - 0.0
18/06:30am 4.5 0.2 -1.7 64 2.4 SSE 11 17 6 9 - - 0.0
18/06:20am 4.5 -0.2 -2.0 63 2.5 SSE 13 19 7 10 - - 0.0
18/06:10am 4.3 -0.1 -2.1 63 2.4 SSE 11 15 6 8 - - 0.0
18/06:00am 4.3 -0.4 -2.0 63 2.4 SSE 13 17 7 9 - - 0.0
18/05:50am 4.4 -0.4 -2.3 62 2.5 SSE 13 19 7 10 - - 0.0
18/05:40am 4.4 0.0 -2.6 60 2.6 SSE 11 19 6 10 - - 0.0
18/05:30am 4.4 0.7 -2.7 60 2.6 SSE 7 13 4 7 - - 0.0
18/05:20am 4.4 0.0 -2.8 59 2.7 SSE 11 15 6 8 - - 0.0
18/05:10am 4.4 0.3 -2.9 59 2.7 SSE 9 15 5 8 - - 0.0
18/05:00am 4.5 0.8 -2.8 59 2.7 SSE 7 11 4 6 - - 0.0
18/04:50am 4.6 0.9 -3.0 58 2.8 SSE 7 9 4 5 - - 0.0
18/04:40am 4.7 1.0 -3.2 56 2.9 SSE 7 11 4 6 - - 0.0
18/04:30am 4.7 1.0 -3.1 57 2.9 SSE 7 11 4 6 - - 0.0
18/04:20am 4.8 -0.4 -2.4 59 2.7 SSE 15 19 8 10 - - 0.0
18/04:10am 4.9 -0.2 -2.3 59 2.7 SSE 15 19 8 10 - - 0.0
18/04:00am 4.9 0.1 -2.2 60 2.7 SSE 13 17 7 9 - - 0.0
18/03:50am 5.0 -0.1 -1.6 62 2.5 SSE 15 17 8 9 - - 0.0
18/03:40am 5.0 -0.3 -0.6 67 2.2 SSE 17 19 9 10 - - 0.0
18/03:30am 5.1 0.5 -0.7 66 2.3 SSE 13 19 7 10 - - 0.0
18/03:20am 5.2 1.0 -0.7 65 2.3 SSE 11 13 6 7 - - 0.0
18/03:10am 5.3 1.1 -0.7 65 2.4 SSE 11 13 6 7 - - 0.0
18/03:00am 5.3 1.1 -1.0 64 2.5 SSE 11 13 6 7 - - 0.0
18/02:50am 5.3 1.1 -1.2 63 2.5 SSE 11 15 6 8 - - 0.0
18/02:40am 5.3 1.0 -1.3 62 2.6 SSE 11 13 6 7 - - 0.0
18/02:30am 5.4 0.8 -1.3 62 2.6 SSE 13 17 7 9 - - 0.0
18/02:20am 5.5 0.5 -1.4 61 2.7 SSE 15 17 8 9 - - 0.0
18/02:10am 5.5 0.1 -1.2 62 2.6 SSE 17 19 9 10 - - 0.0
18/02:00am 5.6 0.6 -1.0 62 2.6 SSE 15 17 8 9 - - 0.0
18/01:50am 5.7 0.4 -0.9 62 2.6 SSE 17 20 9 11 - - 0.0
18/01:40am 5.5 0.6 -0.7 64 2.5 SSE 15 17 8 9 - - 0.0
18/01:30am 5.4 0.5 -0.2 67 2.2 SSE 15 19 8 10 - - 0.0
18/01:20am 5.5 0.6 -0.6 65 2.4 SSE 15 17 8 9 - - 0.0
18/01:10am 5.5 1.3 -0.7 64 2.5 SSE 11 15 6 8 - - 0.0
18/01:00am 5.6 1.4 -0.7 64 2.5 SSE 11 13 6 7 - - 0.0
18/12:50am 5.6 2.2 -0.5 65 2.4 SSE 7 9 4 5 - - 0.0
18/12:40am 5.5 1.7 -0.5 65 2.4 SSE 9 11 5 6 - - 0.0
18/12:30am 5.5 1.4 -0.5 65 2.4 SSE 11 13 6 7 - - 0.0
18/12:20am 5.7 1.2 -0.5 64 2.5 SSE 13 15 7 8 - - 0.0
18/12:10am 5.9 1.4 -0.3 64 2.5 SSE 13 15 7 8 - - 0.0
18/12:00am 6.1 1.3 0.0 65 2.5 SSE 15 19 8 10 - - 0.0
 
Date/Time
EST
Temp
°C
App
Temp
°C
Dew
Point
°C
Rel
Hum
%
Delta-T
°C
Wind Press
QNH
hPa
Press
MSL
hPa
Rain since
9am
mm
Dir  Spd
km/h
Gust
km/h
Spd
kts
Gust
kts
17/11:50pm 6.2 1.4 0.1 65 2.5 SSE 15 19 8 10 - - 0.0
17/11:40pm 6.2 1.4 0.3 66 2.4 SSE 15 17 8 9 - - 0.0
17/11:30pm 6.3 1.2 0.6 67 2.4 SSE 17 19 9 10 - - 0.0
17/11:20pm 6.1 0.7 1.1 70 2.1 SSE 19 20 10 11 - - 0.0
17/11:10pm 5.9 0.3 1.2 72 2.0 SSE 20 26 11 14 - - 0.0
17/11:00pm 5.9 0.3 1.3 72 1.9 SSE 20 24 11 13 - - 0.0
17/10:50pm 6.0 0.4 1.3 72 2.0 SSE 20 26 11 14 - - 0.0
17/10:40pm 6.2 0.6 1.2 70 2.1 SSE 20 26 11 14 - - 0.0
17/10:30pm 6.6 1.6 1.6 70 2.1 SSE 17 22 9 12 - - 0.0
17/10:20pm 7.7 2.8 2.2 68 2.4 SSE 17 20 9 11 - - 0.0
17/10:10pm 11.1 8.6 3.8 60 3.4 SE 6 17 3 9 - - 0.0
17/10:00pm 11.5 9.4 3.9 59 3.6 W 4 7 2 4 - - 0.0
17/09:50pm 11.7 9.5 3.6 57 3.8 E 4 6 2 3 - - 0.0
17/09:40pm 11.8 10.0 3.7 57 3.8 WNW 2 4 1 2 - - 0.0
17/09:30pm 11.7 9.9 3.5 57 3.8 SSE 2 4 1 2 - - 0.0
17/09:20pm 11.7 10.3 3.7 58 3.7 CALM 0 0 0 0 - - 0.0
17/09:10pm 11.9 10.1 3.5 56 3.9 NNW 2 6 1 3 - - 0.0
17/09:00pm 11.8 10.0 3.6 57 3.8 NNW 2 4 1 2 - - 0.0
17/08:50pm 12.0 10.3 3.9 57 3.8 NW 2 6 1 3 - - 0.0
17/08:40pm 12.4 10.6 3.7 55 4.1 NNE 2 4 1 2 - - 0.0
17/08:30pm 12.6 10.4 3.6 54 4.2 ENE 4 7 2 4 - - 0.0
17/08:20pm 12.8 10.6 3.4 53 4.4 N 4 6 2 3 - - 0.0
17/08:10pm 12.8 10.6 3.5 53 4.4 NNE 4 7 2 4 - - 0.0
17/08:00pm 12.9 10.7 3.4 52 4.4 N 4 6 2 3 - - 0.0
17/07:50pm 13.0 10.8 3.2 51 4.6 NNW 4 7 2 4 - - 0.0
17/07:40pm 13.1 11.2 3.0 50 4.7 NE 2 6 1 3 - - 0.0
17/07:30pm 13.2 11.3 2.9 49 4.8 ENE 2 9 1 5 - - 0.0
17/07:20pm 13.2 10.9 2.7 49 4.9 E 4 6 2 3 - - 0.0
17/07:10pm 13.3 11.0 2.5 48 5.0 NE 4 7 2 4 - - 0.0
17/07:00pm 13.4 10.7 2.6 48 5.0 NE 6 7 3 4 - - 0.0
17/06:50pm 13.6 10.7 2.5 47 5.1 N 7 9 4 5 - - 0.0
17/06:40pm 13.7 10.7 2.3 46 5.2 N 7 11 4 6 - - 0.0
17/06:30pm 13.7 10.9 2.3 46 5.2 E 6 7 3 4 - - 0.0
17/06:20pm 13.9 11.1 2.2 45 5.4 E 6 7 3 4 - - 0.0
17/06:10pm 14.1 10.7 1.8 43 5.6 S 9 11 5 6 - - 0.0
17/06:00pm 14.1 11.1 1.7 43 5.7 ENE 7 9 4 5 - - 0.0
17/05:50pm 14.1 11.2 1.4 42 5.8 E 6 7 3 4 - - 0.0
17/05:40pm 14.2 11.7 1.6 42 5.7 NNE 4 7 2 4 - - 0.0
17/05:30pm 14.1 11.6 1.8 43 5.6 N 4 6 2 3 - - 0.0
17/05:20pm 14.1 11.3 2.3 45 5.4 ENE 6 7 3 4 - - 0.0
17/05:10pm 14.0 12.0 4.5 52 4.6 SSE 4 7 2 4 - - 0.0
17/05:00pm 14.3 12.5 5.6 56 4.3 SE 4 6 2 3 - - 0.0
17/04:50pm 14.6 13.0 6.2 57 4.2 E 4 6 2 3 - - 0.0
17/04:40pm 15.0 13.5 6.9 58 4.1 E 4 6 2 3 - - 0.0
17/04:30pm 15.5 13.6 6.8 56 4.5 N 6 7 3 4 - - 0.0
17/04:20pm 15.7 13.8 7.6 58 4.2 NNW 7 7 4 4 - - 0.0
17/04:10pm 15.6 13.9 8.5 62 3.8 NNW 7 9 4 5 - - 0.0
17/04:00pm 15.9 14.1 7.8 58 4.2 N 7 9 4 5 - - 0.0
17/03:50pm 15.9 14.3 7.9 59 4.2 NW 6 7 3 4 - - 0.0
17/03:40pm 16.0 14.2 8.0 59 4.2 NNW 7 9 4 5 - - 0.0
17/03:30pm 15.9 14.1 7.9 59 4.2 NNW 7 9 4 5 - - 0.0
17/03:20pm 15.8 14.6 8.2 60 4.0 NNW 4 6 2 3 - - 0.0
17/03:10pm 15.9 14.7 8.2 60 4.1 NNW 4 6 2 3 - - 0.0
17/03:00pm 16.0 14.9 8.3 60 4.1 N 4 6 2 3 - - 0.0
17/02:50pm 16.1 14.9 8.2 59 4.2 N 4 7 2 4 - - 0.0
17/02:40pm 15.9 14.6 7.8 58 4.2 N 4 6 2 3 - - 0.0
17/02:30pm 15.5 14.4 8.3 62 3.8 N 4 7 2 4 - - 0.0
17/02:20pm 15.4 14.2 8.0 61 3.9 NNE 4 6 2 3 - - 0.0
17/02:10pm 15.5 13.9 7.9 60 4.0 NNW 6 7 3 4 - - 0.0
17/02:00pm 15.4 13.8 7.8 60 4.0 NNW 6 7 3 4 - - 0.0
17/01:50pm 15.5 14.2 7.8 60 4.0 N 4 6 2 3 - - 0.0
17/01:40pm 16.1 14.8 7.8 58 4.4 N 4 6 2 3 - - 0.0
17/01:30pm 16.1 14.5 7.9 58 4.3 NNW 6 7 3 4 - - 0.0
17/01:20pm 16.3 14.7 7.8 57 4.5 N 6 6 3 3 - - 0.0
17/01:10pm 16.2 14.5 7.6 56 4.5 N 6 7 3 4 - - 0.0
17/01:00pm 16.3 14.7 8.0 58 4.4 N 6 7 3 4 - - 0.0
17/12:50pm 16.3 14.7 8.1 58 4.3 N 6 7 3 4 - - 0.0
17/12:40pm 16.4 14.7 7.4 55 4.7 N 6 7 3 4 - - 0.0
17/12:30pm 16.3 14.6 7.7 56 4.5 N 6 7 3 4 - - 0.0
17/12:20pm 15.8 14.1 7.7 58 4.2 N 6 6 3 3 - - 0.0
17/12:10pm 15.9 14.0 6.9 55 4.6 N 6 7 3 4 - - 0.0
17/12:00pm 15.4 14.0 7.1 57 4.3 N 4 6 2 3 - - 0.0
17/11:50am 15.2 13.7 6.6 56 4.4 N 4 6 2 3 - - 0.0
17/11:40am 14.7 13.3 7.1 60 3.9 N 4 6 2 3 - - 0.0
17/11:30am 14.6 12.7 6.7 59 4.0 NNW 6 6 3 3 - - 0.0
17/11:20am 14.4 12.6 7.0 61 3.8 NNW 6 6 3 3 - - 0.0
17/11:10am 14.4 13.1 7.5 63 3.6 ENE 4 4 2 2 - - 0.0
17/11:00am 13.9 12.9 7.3 64 3.4 E 2 4 1 2 - - 0.0
17/10:50am 13.7 12.7 7.3 65 3.3 NE 2 2 1 1 - - 0.0
17/10:40am 12.9 11.4 6.9 67 3.0 N 4 4 2 2 - - 0.0
17/10:30am 12.4 11.2 6.6 68 2.9 NNE 2 4 1 2 - - 0.0
17/10:20am 11.6 10.4 6.6 71 2.5 E 2 4 1 2 - - 0.0
17/10:10am 11.0 9.3 6.1 72 2.4 NE 4 4 2 2 - - 0.0
17/10:00am 10.2 8.9 5.9 74 2.1 ENE 2 4 1 2 - - 0.0
17/09:50am 9.8 8.4 5.6 75 2.0 E 2 4 1 2 - - 0.0
17/09:40am 9.7 8.3 5.6 75 2.0 E 2 4 1 2 - - 0.0
17/09:30am 9.5 7.7 5.4 75 2.0 E 4 6 2 3 - - 0.0
17/09:20am 10.0 8.8 6.6 79 1.7 E 2 4 1 2 - - 0.0
17/09:10am 10.2 9.0 6.3 77 1.9 ESE 2 4 1 2 - - 0.0
17/09:00am 10.2 8.9 6.2 76 1.9 E 2 2 1 1 - - 0.0
17/08:50am 9.8 8.5 5.8 76 1.9 ESE 2 2 1 1 - - 0.0
17/08:40am 9.0 7.6 5.5 79 1.7 E 2 2 1 1 - - 0.0
17/08:30am 8.7 7.3 5.7 81 1.4 E 2 2 1 1 - - 0.0
17/08:20am 8.6 7.6 5.4 80 1.5 CALM 0 2 0 1 - - 0.0
17/08:10am 8.1 6.6 5.1 81 1.4 NE 2 2 1 1 - - 0.0
17/08:00am 7.7 6.2 5.2 84 1.2 N 2 2 1 1 - - 0.0
17/07:50am 7.4 6.2 4.8 83 1.2 CALM 0 2 0 1 - - 0.0
17/07:40am 7.3 6.2 5.1 86 1.0 CALM 0 0 0 0 - - 0.0
17/07:30am 6.9 5.8 4.9 87 0.9 CALM 0 0 0 0 - - 0.0
17/07:20am 7.1 5.9 4.7 85 1.1 CALM 0 2 0 1 - - 0.0
17/07:10am 7.4 5.8 4.7 83 1.2 NNW 2 4 1 2 - - 0.0
17/07:00am 7.5 5.9 4.7 82 1.3 W 2 2 1 1 - - 0.0
17/06:50am 7.8 6.2 4.3 78 1.6 NW 2 2 1 1 - - 0.0
17/06:40am 7.6 5.9 4.2 79 1.6 S 2 2 1 1 - - 0.0
17/06:30am 7.4 5.4 4.5 82 1.3 SSE 4 4 2 2 - - 0.0
17/06:20am 7.3 5.7 4.5 82 1.3 SE 2 4 1 2 - - 0.0
17/06:10am 7.6 6.1 4.8 82 1.3 NNE 2 2 1 1 - - 0.0
17/06:00am 7.8 6.2 4.6 80 1.5 SSE 2 4 1 2 - - 0.0
17/05:50am 8.2 6.4 5.2 81 1.4 SSE 4 4 2 2 - - 0.0
17/05:40am 8.2 6.7 5.0 80 1.5 SSE 2 4 1 2 - - 0.0
17/05:30am 8.3 7.2 5.0 80 1.5 CALM 0 2 0 1 - - 0.0
17/05:20am 8.7 7.6 5.3 79 1.6 CALM 0 4 0 2 - - 0.0
17/05:10am 8.6 7.5 4.9 77 1.7 CALM 0 2 0 1 - - 0.0
17/05:00am 8.1 7.0 5.2 82 1.4 CALM 0 0 0 0 - - 0.0
17/04:50am 8.2 7.2 5.5 83 1.3 CALM 0 0 0 0 - - 0.0
17/04:40am 8.4 7.4 5.6 82 1.3 CALM 0 0 0 0 - - 0.0
17/04:30am 8.6 7.5 5.3 80 1.6 CALM 0 0 0 0 - - 0.0
17/04:20am 8.7 7.6 5.3 79 1.6 CALM 0 0 0 0 - - 0.0
17/04:10am 8.8 7.7 5.2 78 1.7 CALM 0 0 0 0 - - 0.0
17/04:00am 8.8 7.4 5.4 79 1.6 SSE 2 2 1 1 - - 0.0
17/03:50am 8.9 7.5 5.4 79 1.7 S 2 4 1 2 - - 0.0
17/03:40am 9.2 7.4 5.5 77 1.8 SSE 4 4 2 2 - - 0.0
17/03:30am 9.4 7.6 5.5 76 1.9 SSE 4 6 2 3 - - 0.0
17/03:20am 9.1 6.9 5.2 76 1.8 SSE 6 6 3 3 - - 0.0
17/03:10am 8.5 7.6 6.1 85 1.2 CALM 0 4 0 2 - - 0.0
17/03:00am 8.6 7.8 6.4 86 1.1 CALM 0 2 0 1 - - 0.0
17/02:50am 8.9 8.1 6.5 85 1.2 CALM 0 0 0 0 - - 0.0
17/02:40am 9.0 7.7 6.2 82 1.4 SSE 2 2 1 1 - - 0.0
17/02:30am 8.8 7.6 6.4 85 1.2 SSE 2 4 1 2 - - 0.0
17/02:20am 9.0 7.8 6.4 84 1.3 SSE 2 2 1 1 - - 0.0
17/02:10am 9.0 7.8 6.6 85 1.2 S 2 2 1 1 - - 0.0
17/02:00am 9.1 8.3 6.6 84 1.2 CALM 0 4 0 2 - - 0.0
17/01:50am 9.3 8.2 6.7 84 1.3 SSE 2 4 1 2 - - 0.0
17/01:40am 9.3 8.5 6.7 84 1.3 CALM 0 2 0 1 - - 0.0
17/01:30am 9.3 8.6 7.1 86 1.1 CALM 0 4 0 2 - - 0.0
17/01:20am 9.4 8.4 7.2 86 1.1 SSE 2 4 1 2 - - 0.0
17/01:10am 9.6 8.6 7.2 85 1.2 SSE 2 2 1 1 - - 0.0
17/01:00am 9.8 8.4 7.1 83 1.3 SSE 4 4 2 2 - - 0.0
17/12:50am 9.7 8.3 7.1 84 1.3 SSE 4 4 2 2 - - 0.0
17/12:40am 9.6 8.6 7.2 85 1.2 SSE 2 4 1 2 - - 0.0
17/12:30am 9.3 8.2 7.1 86 1.1 S 2 4 1 2 - - 0.0
17/12:20am 9.5 8.4 7.1 85 1.2 SSE 2 4 1 2 - - 0.0
17/12:10am 9.6 8.5 7.1 84 1.2 SSE 2 4 1 2 - - 0.0
17/12:00am 9.3 8.7 7.2 87 1.0 CALM 0 0 0 0 - - 0.0
 
Date/Time
EST
Temp
°C
App
Temp
°C
Dew
Point
°C
Rel
Hum
%
Delta-T
°C
Wind Press
QNH
hPa
Press
MSL
hPa
Rain since
9am
mm
Dir  Spd
km/h
Gust
km/h
Spd
kts
Gust
kts
16/11:50pm 9.4 8.8 7.3 87 1.0 CALM 0 2 0 1 - - 0.0
16/11:40pm 9.7 9.1 7.3 85 1.2 CALM 0 4 0 2 - - 0.0
16/11:30pm 9.7 8.6 7.1 84 1.3 S 2 4 1 2 - - 0.0
16/11:20pm 9.7 8.7 7.3 85 1.2 SSW 2 2 1 1 - - 0.0
16/11:10pm 10.1 9.1 7.4 83 1.3 SW 2 4 1 2 - - 0.0
16/11:00pm 10.5 8.7 7.2 80 1.6 SSE 6 6 3 3 - - 0.0
16/10:50pm 10.6 8.8 7.2 79 1.7 SSE 6 6 3 3 - - 0.0
16/10:40pm 10.5 8.7 7.2 80 1.6 SSE 6 7 3 4 - - 0.0
16/10:30pm 10.5 8.7 7.3 80 1.6 SSE 6 6 3 3 - - 0.0
16/10:20pm 10.5 8.7 7.3 80 1.6 SSE 6 6 3 3 - - 0.0
16/10:10pm 10.4 9.0 7.4 82 1.5 SSE 4 6 2 3 - - 0.0
16/10:00pm 10.3 9.0 7.6 83 1.4 SSE 4 4 2 2 - - 0.0
16/09:50pm 10.3 9.0 7.5 83 1.4 SSE 4 4 2 2 - - 0.0
16/09:40pm 10.2 9.3 7.6 84 1.3 S 2 4 1 2 - - 0.0
16/09:30pm 10.2 9.3 7.7 84 1.3 S 2 2 1 1 - - 0.0
16/09:20pm 10.2 9.7 7.7 84 1.3 CALM 0 0 0 0 - - 0.0
16/09:10pm 10.3 9.8 7.8 84 1.3 CALM 0 2 0 1 - - 0.0
16/09:00pm 10.4 9.9 7.8 84 1.3 CALM 0 2 0 1 - - 0.0
16/08:50pm 10.5 10.0 7.9 84 1.3 CALM 0 4 0 2 - - 0.0
16/08:40pm 10.6 10.1 7.9 83 1.4 CALM 0 0 0 0 - - 0.0
16/08:30pm 10.9 10.4 7.8 81 1.6 CALM 0 2 0 1 - - 0.0
16/08:20pm 11.1 10.2 7.8 80 1.7 WNW 2 4 1 2 - - 0.0
16/08:00pm 11.4 10.8 7.6 77 1.9 CALM 0 2 0 1 - - 0.0
16/07:50pm 11.5 10.9 7.6 77 2.0 CALM 0 2 0 1 - - 0.0
16/07:40pm 11.5 10.5 7.5 76 2.0 WSW 2 4 1 2 - - 0.0
16/07:30pm 11.5 11.0 7.7 77 1.9 CALM 0 2 0 1 - - 0.0
16/07:20pm 12.0 11.5 7.8 75 2.1 CALM 0 2 0 1 - - 0.0
16/07:10pm 12.6 12.1 7.7 72 2.5 CALM 0 4 0 2 - - 0.0
16/07:00pm 12.9 11.2 7.5 69 2.8 NW 6 6 3 3 - - 0.0
16/06:50pm 12.8 11.4 7.4 69 2.7 NW 4 6 2 3 - - 0.0
16/06:40pm 12.9 11.6 7.5 69 2.8 NW 4 6 2 3 - - 0.0
16/06:30pm 13.0 11.2 7.3 68 2.9 NNW 6 6 3 3 - - 0.0
16/06:20pm 13.0 11.2 7.3 68 2.9 NW 6 6 3 3 - - 0.0
16/06:10pm 13.1 11.3 7.2 67 3.0 NW 6 6 3 3 - - 0.0
16/06:00pm 13.2 11.4 7.2 67 3.1 NW 6 7 3 4 - - 0.0
16/05:50pm 13.3 11.3 7.3 67 3.1 NNW 7 7 4 4 - - 0.0
16/05:40pm 13.4 11.4 7.3 66 3.1 NNW 7 9 4 5 - - 0.0
16/05:30pm 13.5 11.5 7.3 66 3.2 NNW 7 9 4 5 - - 0.0
16/05:20pm 13.6 11.6 7.3 65 3.2 NNW 7 7 4 4 - - 0.0
16/05:10pm 13.7 11.7 7.3 65 3.3 NNW 7 7 4 4 - - 0.0
16/05:00pm 13.9 11.9 7.2 64 3.4 NNW 7 9 4 5 - - 0.0
16/04:50pm 14.1 12.1 7.3 63 3.5 NNW 7 9 4 5 - - 0.0
16/04:40pm 13.8 12.5 7.6 66 3.2 NNW 4 6 2 3 - - 0.0
16/04:30pm 13.5 13.1 8.2 70 2.8 CALM 0 2 0 1 - - 0.0
16/04:20pm 13.8 13.5 8.6 71 2.7 CALM 0 2 0 1 - - 0.0
16/04:10pm 14.3 13.9 8.4 67 3.1 CALM 0 2 0 1 - - 0.0
16/04:00pm 14.7 13.9 8.1 64 3.5 NNE 2 4 1 2 - - 0.0
16/03:50pm 14.7 13.4 7.7 63 3.6 NNW 4 6 2 3 - - 0.0
16/03:40pm 14.5 13.2 7.8 64 3.5 NNW 4 6 2 3 - - 0.0
16/03:30pm 15.1 13.8 7.7 61 3.8 N 4 6 2 3 - - 0.0
16/03:20pm 15.1 13.9 8.0 62 3.7 N 4 6 2 3 - - 0.0
16/03:10pm 15.3 13.6 7.6 60 4.0 NNW 6 6 3 3 - - 0.0
16/03:00pm 14.9 14.1 8.1 64 3.6 N 2 6 1 3 - - 0.0
16/02:50pm 14.7 13.5 7.9 63 3.5 N 4 4 2 2 - - 0.0
16/02:40pm 14.0 12.9 8.3 68 3.0 NNE 4 4 2 2 - - 0.0
16/02:30pm 13.8 13.1 8.4 70 2.8 N 2 4 1 2 - - 0.0
16/02:20pm 13.9 12.7 8.0 67 3.1 N 4 4 2 2 - - 0.0
16/02:10pm 14.0 12.9 8.3 68 3.0 NNW 4 4 2 2 - - 0.0
16/02:00pm 14.6 13.3 7.8 63 3.5 N 4 7 2 4 - - 0.0
16/01:50pm 14.8 13.2 8.1 64 3.5 NNW 6 9 3 5 - - 0.0
16/01:40pm 16.0 14.5 8.4 60 4.0 N 6 7 3 4 - - 0.0
16/01:30pm 16.7 15.1 8.1 57 4.6 NNE 6 6 3 3 - - 0.0
16/01:20pm 16.4 15.0 8.7 60 4.1 N 6 7 3 4 - - 0.0
16/01:10pm 16.7 15.1 8.2 57 4.5 N 6 6 3 3 - - 0.0
16/01:00pm 16.3 14.7 8.0 58 4.4 NNW 6 7 3 4 - - 0.0
16/12:50pm 16.0 14.4 7.9 58 4.3 N 6 9 3 5 - - 0.0
16/12:40pm 16.1 14.6 8.3 60 4.1 N 6 7 3 4 - - 0.0
16/12:30pm 15.7 14.1 7.9 59 4.1 N 6 7 3 4 - - 0.0
16/12:20pm 16.0 14.4 7.8 58 4.3 N 6 6 3 3 - - 0.0
16/12:10pm 16.0 14.4 8.1 59 4.2 N 6 6 3 3 - - 0.0
16/12:00pm 16.1 14.5 8.1 59 4.2 NNE 6 7 3 4 - - 0.0
16/11:50am 15.7 14.2 8.3 61 3.9 NNE 6 6 3 3 - - 0.0
16/11:40am 15.1 13.5 7.8 61 3.8 N 6 7 3 4 - - 0.0
16/11:30am 14.1 12.3 7.9 66 3.2 N 7 9 4 5 - - 0.0
16/11:20am 14.7 13.0 7.6 62 3.7 N 6 7 3 4 - - 0.0
16/11:10am 14.7 13.0 7.4 61 3.8 N 6 7 3 4 - - 0.0
16/11:00am 14.2 12.5 7.6 64 3.4 N 6 7 3 4 - - 0.0
16/10:50am 13.9 12.6 7.5 65 3.3 N 4 6 2 3 - - 0.0
16/10:40am 13.5 12.3 7.9 69 2.9 N 4 6 2 3 - - 0.0
16/10:30am 12.9 11.6 7.7 70 2.7 N 4 4 2 2 - - 0.0
16/10:20am 12.2 10.9 7.7 74 2.3 N 4 6 2 3 - - 0.0
16/10:10am 11.7 10.3 7.2 74 2.3 NNE 4 4 2 2 - - 0.0
16/10:00am 11.0 10.0 7.3 78 1.9 E 2 4 1 2 - - 0.0
16/09:50am 10.9 9.9 7.3 78 1.8 E 2 4 1 2 - - 0.0
16/09:40am 11.4 10.3 7.1 75 2.2 E 2 2 1 1 - - 0.0
16/09:30am 10.8 9.7 6.8 76 2.0 E 2 4 1 2 - - 0.0
16/09:20am 10.4 9.3 6.8 78 1.8 E 2 4 1 2 - - 0.0
16/09:10am 9.6 8.4 6.5 81 1.5 E 2 4 1 2 - - 0.0
16/09:00am 8.7 7.5 6.6 87 1.0 SE 2 2 1 1 - - 0.0
16/08:50am 8.6 7.4 6.3 85 1.1 SSE 2 4 1 2 - - 0.0
16/08:40am 8.8 7.2 6.4 85 1.2 SSE 4 4 2 2 - - 0.0
16/08:30am 9.4 8.6 6.7 83 1.3 CALM 0 2 0 1 - - 0.0

Latest Capital City Observations: Canberra | Sydney | Melbourne | Brisbane | Adelaide | Perth | Hobart | Darwin

Other formats

Comma delimited format used in spreadsheet applications
http://www.bom.gov.au/fwo/IDN60903/IDN60903.99146.axf

JavaScript Object Notation format (JSON) in row-major order
http://www.bom.gov.au/fwo/IDN60903/IDN60903.99146.json

Data quality

Most of these data are generated automatically and are frequently updated. Quality checks on data are not normally performed. It is possible for incorrect values to appear. Refer to information at About Latest Weather Observations and please check the disclaimer before using these data.